Etusivu
METAR-TAF:

METAR-TAF

Lentoasemat :

Hallin lentoasema

Jämsä, Suomi

Leveyspiiri: 61-51N, Pituuspiiri: 024-48E, korkeus merenpinnasta: 143 m

Tämänhetkinen sää

Tämä raportti tehtiin 35 minuuttia sitten, kello 11.50 UTC
Tuuli 7 kn kaakosta, vaihdellen idän/kaakon ja etelän välillä
Lämpötila 4°C
Kosteus 100%
Ilmanpaine 1007 hPa
Näkyvyys: 8000 m
Pilvistä 400 ft:n korkeudessa

METAR: EFHA 131150Z 14007KT 110V170 8000 OVC004 04/04 Q1007

Aika: 14:25 (12:25 UTC)

Sääennuste

Tämä raportti tehtiin 53 minuuttia sitten, kello 11.32 UTC
Ennuste voimassa 13. päivästä klo 12 UTC - 13. päivään klo 14 UTC
Tuuli 6 kn kaakosta
Näkyvyys 10 km tai enemmän
Hajonneita pilviä 400 ft:n korkeudessa
Ajoittain
13. päivästä klo 12 UTC - 13. päivään klo 14 UTC
Näkyvyys: 4000 m
sadetta

TAF: EFHA 131132Z 1312/1314 13006KT 9999 BKN004 TEMPO 1312/1314 4000 RA

Säähavainnot ja -ennusteet yli 4000 lentoasemalta (METAR- ja TAF-raportit).

Käytössä olevat sääasemat on merkitty karttaan keltaisilla ja punaisilla pisteillä.

Aseta hiiri pisteen päälle nähdäksesi sääaseman nimen.

Klikkaa sitten nähdäksesi säähavainnot ja -ennusteet.

Kartan vaihtaminen: klikkaa mustalla rastilla varustettuja vihreitä pisteitä, niin voit zoomata sisään; viivalla varustettua vihreää pistettä, niin voit zoomata ulos tai vihreitä nuolia, niin pääset viereisille kartoille.


METAR-TAF: